createdAt,value
2023-05-17T00:04:41.499Z,98177.13
2023-05-17T00:10:03.880Z,98178.85
2023-05-17T00:15:25.567Z,98192.78
2023-05-17T00:20:47.156Z,98199.66
2023-05-17T00:26:09.104Z,98195.72
2023-05-17T00:31:31.234Z,98197.95
2023-05-17T00:36:53.143Z,98192.61
2023-05-17T00:42:15.160Z,98189.69
2023-05-17T00:47:36.918Z,98180.73
2023-05-17T00:52:58.935Z,98186.08
2023-05-17T00:58:20.762Z,98192.95
2023-05-17T01:03:42.981Z,98197.25
2023-05-17T01:09:06.171Z,98190.03
2023-05-17T01:14:49.807Z,98184.18
2023-05-17T01:20:19.509Z,98182.47
2023-05-17T01:25:50.288Z,98167.12
2023-05-17T01:31:13.444Z,98172.45
2023-05-17T01:36:35.992Z,98180.02
2023-05-17T01:42:11.450Z,98167.61
2023-05-17T01:48:02.499Z,98169.52
2023-05-17T01:53:31.290Z,98174.54
2023-05-17T01:58:53.641Z,98176.08
2023-05-17T02:04:15.680Z,98171.95
2023-05-17T02:09:37.705Z,98182.80
2023-05-17T02:15:00.050Z,98198.29
2023-05-17T02:20:22.033Z,98210.51
2023-05-17T02:25:43.679Z,98213.45
2023-05-17T02:31:08.704Z,98200.54
2023-05-17T02:36:30.881Z,98207.60
2023-05-17T02:41:52.326Z,98207.93
2023-05-17T02:47:14.469Z,98202.06
2023-05-17T02:52:36.185Z,98200.34
2023-05-17T02:57:59.285Z,98198.78
2023-05-17T03:03:21.394Z,98204.97
2023-05-17T03:08:43.327Z,98204.27
2023-05-17T03:14:05.243Z,98212.88
2023-05-17T03:19:26.942Z,98215.11
2023-05-17T03:24:48.873Z,98210.64
2023-05-17T03:30:11.001Z,98224.92
2023-05-17T03:35:32.806Z,98240.06
2023-05-17T03:40:54.846Z,98243.48
2023-05-17T03:46:17.570Z,98255.34
2023-05-17T03:51:39.740Z,98257.02
2023-05-17T03:57:01.742Z,98256.83
2023-05-17T04:02:24.763Z,98265.79
2023-05-17T04:07:46.706Z,98272.48
2023-05-17T04:13:09.807Z,98287.77
2023-05-17T04:18:38.357Z,98283.13
2023-05-17T04:24:02.682Z,98288.80
2023-05-17T04:29:24.947Z,98297.38
2023-05-17T04:34:48.181Z,98301.33
2023-05-17T04:40:11.120Z,98304.09
2023-05-17T04:45:34.200Z,98302.39
2023-05-17T04:50:56.053Z,98304.79
2023-05-17T04:56:17.694Z,98305.27
2023-05-17T05:01:39.890Z,98297.72
2023-05-17T05:07:01.967Z,98304.08
2023-05-17T05:12:24.783Z,98318.52
2023-05-17T05:17:46.856Z,98331.02
2023-05-17T05:23:09.334Z,98334.65
2023-05-17T05:28:32.156Z,98334.48
2023-05-17T05:33:54.843Z,98337.38
2023-05-17T05:39:17.228Z,98345.44
2023-05-17T05:44:39.431Z,98356.61
2023-05-17T05:50:06.760Z,98365.70
2023-05-17T05:55:28.871Z,98368.98
2023-05-17T06:00:51.308Z,98382.55
2023-05-17T06:06:13.460Z,98394.90
2023-05-17T06:11:35.322Z,98396.79
2023-05-17T06:16:56.924Z,98403.15
2023-05-17T06:22:18.818Z,98408.94
2023-05-17T06:27:40.437Z,98412.80
2023-05-17T06:33:02.466Z,98418.94
2023-05-17T06:38:24.871Z,98432.62
2023-05-17T06:43:46.925Z,98443.04
2023-05-17T06:49:09.500Z,98447.92
2023-05-17T06:54:31.975Z,98452.48
2023-05-17T06:59:53.856Z,98465.78
2023-05-17T07:05:16.051Z,98475.33
2023-05-17T07:10:37.856Z,98477.53
2023-05-17T07:16:03.105Z,98485.59
2023-05-17T07:21:24.811Z,98493.33
2023-05-17T07:26:46.799Z,98496.58
2023-05-17T07:32:09.741Z,98498.98
2023-05-17T07:37:31.618Z,98505.69
2023-05-17T07:42:53.638Z,98505.86
2023-05-17T07:48:17.844Z,98510.87
2023-05-17T07:53:40.023Z,98510.55
2023-05-17T07:59:01.949Z,98520.05
2023-05-17T08:04:24.454Z,98526.88
2023-05-17T08:09:46.518Z,98539.29
2023-05-17T08:15:08.842Z,98548.39
2023-05-17T08:20:30.492Z,98557.95
2023-05-17T08:25:52.630Z,98561.30
2023-05-17T08:31:14.438Z,98571.16
2023-05-17T08:36:36.848Z,98573.91
2023-05-17T08:41:59.877Z,98573.73
2023-05-17T08:47:32.284Z,98575.55
2023-05-17T08:52:54.791Z,98576.23
2023-05-17T08:58:19.918Z,98583.10
2023-05-17T09:03:43.678Z,98580.11
2023-05-17T09:09:07.740Z,98577.95
2023-05-17T09:14:34.513Z,98574.73
2023-05-17T09:19:56.414Z,98575.56
2023-05-17T09:25:24.284Z,98581.33
2023-05-17T09:30:48.891Z,98590.65
2023-05-17T09:36:22.171Z,98597.70
2023-05-17T09:41:47.065Z,98606.17
2023-05-17T09:47:09.234Z,98610.60
2023-05-17T09:52:32.380Z,98622.39
2023-05-17T09:57:54.395Z,98623.20
2023-05-17T10:03:16.009Z,98629.06
2023-05-17T10:08:38.770Z,98628.42
2023-05-17T10:14:24.200Z,98628.30
2023-05-17T10:19:47.088Z,98634.45
2023-05-17T10:25:09.370Z,98634.61
2023-05-17T10:30:31.468Z,98635.12
2023-05-17T10:35:53.698Z,98637.06
2023-05-17T10:41:17.628Z,98643.66
2023-05-17T10:46:39.372Z,98653.09
2023-05-17T10:52:18.266Z,98659.02
2023-05-17T10:57:49.966Z,98662.14
2023-05-17T11:03:14.206Z,98666.91
2023-05-17T11:08:37.113Z,98679.07
2023-05-17T11:14:03.763Z,98684.70
2023-05-17T11:19:25.285Z,98690.14
2023-05-17T11:24:49.392Z,98698.89
2023-05-17T11:30:31.860Z,98697.80
2023-05-17T11:35:54.790Z,98697.86
2023-05-17T11:41:27.002Z,98698.70
2023-05-17T11:46:50.527Z,98703.64
2023-05-17T11:52:12.340Z,98705.46
2023-05-17T11:57:33.879Z,98707.23
2023-05-17T12:02:56.040Z,98719.42
2023-05-17T12:08:19.715Z,98722.73
2023-05-17T12:13:42.841Z,98731.33
2023-05-17T12:19:22.330Z,98736.34
2023-05-17T12:24:44.474Z,98747.63
2023-05-17T12:30:16.295Z,98757.52
2023-05-17T12:35:38.590Z,98762.73
2023-05-17T12:41:02.755Z,98769.33
2023-05-17T12:46:24.924Z,98768.16
2023-05-17T12:51:47.621Z,98770.09
2023-05-17T12:57:14.208Z,98770.97
2023-05-17T13:02:43.663Z,98778.64
2023-05-17T13:08:22.222Z,98781.88
2023-05-17T13:13:43.875Z,98782.95
2023-05-17T13:19:13.907Z,98783.74
2023-05-17T13:24:39.958Z,98785.95
2023-05-17T13:30:01.647Z,98790.67
2023-05-17T13:35:23.558Z,98797.55
2023-05-17T13:40:45.431Z,98798.89
2023-05-17T13:46:07.208Z,98800.63
2023-05-17T13:51:29.151Z,98807.99
2023-05-17T13:56:52.150Z,98803.02
2023-05-17T14:02:13.824Z,98808.67
2023-05-17T14:07:41.513Z,98814.64
2023-05-17T14:13:03.451Z,98814.31
2023-05-17T14:18:25.379Z,98820.61
2023-05-17T14:23:47.347Z,98828.55
2023-05-17T14:29:09.328Z,98827.86
2023-05-17T14:34:31.176Z,98836.14
2023-05-17T14:40:05.899Z,98838.79
2023-05-17T14:45:28.978Z,98844.73
2023-05-17T14:50:53.814Z,98845.20
2023-05-17T14:56:15.483Z,98842.20
2023-05-17T15:01:37.939Z,98840.58
2023-05-17T15:07:00.149Z,98850.90
2023-05-17T15:12:23.448Z,98860.66
2023-05-17T15:17:45.396Z,98863.55
2023-05-17T15:23:07.659Z,98867.23
2023-05-17T15:28:29.451Z,98871.12
2023-05-17T15:33:51.846Z,98876.99
2023-05-17T15:39:16.235Z,98889.97
2023-05-17T15:44:38.976Z,98886.52
2023-05-17T15:50:00.875Z,98872.50
2023-05-17T15:55:35.282Z,98877.14
2023-05-17T16:00:57.010Z,98876.04
2023-05-17T16:06:19.820Z,98880.30
2023-05-17T16:11:41.896Z,98881.98
2023-05-17T16:17:04.025Z,98892.43
2023-05-17T16:22:25.853Z,98892.15
2023-05-17T16:27:48.473Z,98890.69
2023-05-17T16:33:10.443Z,98893.13
2023-05-17T16:38:32.432Z,98896.73
2023-05-17T16:43:54.411Z,98899.81
2023-05-17T16:49:16.387Z,98889.03
2023-05-17T16:54:39.023Z,98897.77
2023-05-17T17:00:01.706Z,98906.56
2023-05-17T17:05:23.452Z,98911.76
2023-05-17T17:10:45.233Z,98916.27
2023-05-17T17:16:09.157Z,98919.80
2023-05-17T17:21:36.383Z,98928.91
2023-05-17T17:26:58.424Z,98935.13
2023-05-17T17:32:20.535Z,98952.71
2023-05-17T17:37:42.317Z,98951.58
2023-05-17T17:43:04.411Z,98950.48
2023-05-17T17:48:26.607Z,98964.96
2023-05-17T17:53:49.087Z,98980.02
2023-05-17T17:59:12.524Z,98984.48
2023-05-17T18:04:34.388Z,98984.20
2023-05-17T18:09:57.067Z,98975.97
2023-05-17T18:15:19.219Z,98960.30
2023-05-17T18:20:42.221Z,98960.98
2023-05-17T18:26:04.086Z,98970.77
2023-05-17T18:31:26.328Z,98974.28
2023-05-17T18:36:48.112Z,98981.36
2023-05-17T18:42:10.243Z,98985.15
2023-05-17T18:47:32.446Z,98992.44
2023-05-17T18:52:56.415Z,99005.52
2023-05-17T18:58:19.244Z,99015.07
2023-05-17T19:03:44.315Z,99013.15
2023-05-17T19:09:06.321Z,99019.17
2023-05-17T19:14:28.304Z,99019.89
2023-05-17T19:19:50.197Z,99014.56
2023-05-17T19:25:12.802Z,99016.92
2023-05-17T19:30:36.038Z,99018.05
2023-05-17T19:35:58.406Z,99016.78
2023-05-17T19:41:20.703Z,99018.97
2023-05-17T19:46:43.173Z,99028.54
2023-05-17T19:52:05.445Z,99032.09
2023-05-17T19:57:28.722Z,99047.33
2023-05-17T20:02:50.743Z,99055.24
2023-05-17T20:08:12.662Z,99063.95
2023-05-17T20:13:34.786Z,99063.85
2023-05-17T20:18:58.391Z,99071.09
2023-05-17T20:24:23.434Z,99077.24
2023-05-17T20:29:45.093Z,99080.64
2023-05-17T20:35:07.827Z,99083.27
2023-05-17T20:40:30.276Z,99080.38
2023-05-17T20:45:53.919Z,99083.80
2023-05-17T20:51:17.855Z,99090.81
2023-05-17T20:56:40.369Z,99089.02
2023-05-17T21:02:04.109Z,99093.00
2023-05-17T21:07:26.622Z,99096.77
2023-05-17T21:12:48.553Z,99097.56
2023-05-17T21:18:11.598Z,99103.52
2023-05-17T21:23:34.018Z,99107.45
2023-05-17T21:28:56.058Z,99108.05
2023-05-17T21:34:18.016Z,99105.95
2023-05-17T21:39:39.917Z,99107.07
2023-05-17T21:45:02.249Z,99107.24
2023-05-17T21:50:24.056Z,99105.41
2023-05-17T21:56:01.438Z,99108.34
2023-05-17T22:01:24.593Z,99105.26
2023-05-17T22:06:46.722Z,99107.98
2023-05-17T22:12:09.543Z,99110.55
2023-05-17T22:17:46.930Z,99111.64
2023-05-17T22:23:10.494Z,99116.22
2023-05-17T22:28:32.491Z,99118.26
2023-05-17T22:33:54.624Z,99119.26
2023-05-17T22:39:16.188Z,99116.57
2023-05-17T22:44:38.084Z,99120.68
2023-05-17T22:50:00.918Z,99120.73
2023-05-17T22:55:24.248Z,99121.80
2023-05-17T23:00:47.226Z,99118.99
2023-05-17T23:06:09.809Z,99119.08
2023-05-17T23:11:34.852Z,99113.48
2023-05-17T23:16:56.866Z,99110.48
2023-05-17T23:22:18.871Z,99111.89
2023-05-17T23:27:40.767Z,99115.79
2023-05-17T23:33:03.190Z,99115.27
2023-05-17T23:38:28.045Z,99114.94
2023-05-17T23:43:49.667Z,99114.13
2023-05-17T23:49:11.489Z,99111.73
2023-05-17T23:54:33.206Z,99109.94
2023-05-17T23:59:54.710Z,99102.45
